createdAt,value
2019-02-05T00:00:37.315Z,1.30
2019-02-05T00:03:11.242Z,1.30
2019-02-05T00:05:39.896Z,1.29
2019-02-05T00:08:08.527Z,1.31
2019-02-05T00:10:37.079Z,1.24
2019-02-05T00:13:05.679Z,1.21
2019-02-05T00:15:34.431Z,1.17
2019-02-05T00:18:03.070Z,1.15
2019-02-05T00:20:31.563Z,1.16
2019-02-05T00:23:00.030Z,1.13
2019-02-05T00:25:28.529Z,1.09
2019-02-05T00:27:56.993Z,1.12
2019-02-05T00:30:25.936Z,1.06
2019-02-05T00:32:54.397Z,1.06
2019-02-05T00:35:22.920Z,1.06
2019-02-05T00:37:51.450Z,1.00
2019-02-05T00:40:20.100Z,1.01
2019-02-05T00:42:48.572Z,1.02
2019-02-05T00:45:20.750Z,1.03
2019-02-05T00:47:49.378Z,0.97
2019-02-05T00:50:19.544Z,1.06
2019-02-05T00:52:48.008Z,1.02
2019-02-05T00:55:19.221Z,0.99
2019-02-05T00:57:48.044Z,0.99
2019-02-05T01:00:25.861Z,0.97
2019-02-05T01:02:54.692Z,1.01
2019-02-05T01:05:23.419Z,0.96
2019-02-05T01:07:52.211Z,0.96
2019-02-05T01:10:22.122Z,0.94
2019-02-05T01:12:51.637Z,0.92
2019-02-05T01:15:22.466Z,0.96
2019-02-05T01:17:51.671Z,0.98
2019-02-05T01:20:21.580Z,0.97
2019-02-05T01:22:50.880Z,0.95
2019-02-05T01:25:20.449Z,1.00
2019-02-05T01:27:49.443Z,0.96
2019-02-05T01:30:23.471Z,1.02
2019-02-05T01:32:52.490Z,1.04
2019-02-05T01:35:21.583Z,1.00
2019-02-05T01:37:50.127Z,1.03
2019-02-05T01:40:21.289Z,1.05
2019-02-05T01:42:49.755Z,1.07
2019-02-05T01:45:19.870Z,1.09
2019-02-05T01:47:48.634Z,1.06
2019-02-05T01:50:22.404Z,1.06
2019-02-05T01:52:50.950Z,1.05
2019-02-05T01:55:19.882Z,1.08
2019-02-05T01:57:48.528Z,1.08
2019-02-05T02:00:25.616Z,1.11
2019-02-05T02:02:54.169Z,1.11
2019-02-05T02:05:22.778Z,1.12
2019-02-05T02:07:51.404Z,1.15
2019-02-05T02:10:23.057Z,1.14
2019-02-05T02:12:51.983Z,1.15
2019-02-05T02:15:20.533Z,1.15
2019-02-05T02:17:49.289Z,1.19
2019-02-05T02:20:20.159Z,1.16
2019-02-05T02:22:48.977Z,1.18
2019-02-05T02:25:18.066Z,1.18
2019-02-05T02:27:47.307Z,1.16
2019-02-05T02:30:25.006Z,1.19
2019-02-05T02:32:53.492Z,1.17
2019-02-05T02:35:21.960Z,1.19
2019-02-05T02:37:50.924Z,1.17
2019-02-05T02:40:19.377Z,1.18
2019-02-05T02:42:47.935Z,1.18
2019-02-05T02:45:16.684Z,1.24
2019-02-05T02:47:45.618Z,1.23
2019-02-05T02:50:21.767Z,1.24
2019-02-05T02:52:51.180Z,1.23
2019-02-05T02:55:19.900Z,1.23
2019-02-05T02:57:48.379Z,1.27
2019-02-05T03:00:39.027Z,1.23
2019-02-05T03:03:07.887Z,1.26
2019-02-05T03:05:36.414Z,1.30
2019-02-05T03:08:04.965Z,1.31
2019-02-05T03:10:33.422Z,1.30
2019-02-05T03:13:01.910Z,1.31
2019-02-05T03:15:30.353Z,1.32
2019-02-05T03:17:58.827Z,1.33
2019-02-05T03:20:27.367Z,1.39
2019-02-05T03:22:56.196Z,1.38
2019-02-05T03:25:26.277Z,1.37
2019-02-05T03:27:55.208Z,1.32
2019-02-05T03:30:25.615Z,1.37
2019-02-05T03:32:55.920Z,1.41
2019-02-05T03:35:24.617Z,1.40
2019-02-05T03:37:53.276Z,1.42
2019-02-05T03:40:30.602Z,1.43
2019-02-05T03:42:59.414Z,1.47
2019-02-05T03:45:29.484Z,1.43
2019-02-05T03:48:02.267Z,1.43
2019-02-05T03:50:33.712Z,1.50
2019-02-05T03:53:23.000Z,1.48
2019-02-05T03:56:09.388Z,1.48
2019-02-05T03:58:43.514Z,1.53
2019-02-05T04:01:20.727Z,1.52
2019-02-05T04:04:11.680Z,1.54
2019-02-05T04:06:48.762Z,1.55
2019-02-05T04:09:26.331Z,1.56
2019-02-05T04:12:15.912Z,1.54
2019-02-05T04:14:47.525Z,1.58
2019-02-05T04:17:19.046Z,1.59
2019-02-05T04:19:59.154Z,1.57
2019-02-05T04:22:33.432Z,1.60
2019-02-05T04:25:21.279Z,1.62
2019-02-05T04:28:01.783Z,1.60
2019-02-05T04:30:51.463Z,1.62
2019-02-05T04:33:42.348Z,1.64
2019-02-05T04:36:19.639Z,1.61
2019-02-05T04:39:12.542Z,1.64
2019-02-05T04:41:47.012Z,1.63
2019-02-05T04:44:30.822Z,1.56
2019-02-05T04:47:05.041Z,1.55
2019-02-05T04:49:51.626Z,1.57
2019-02-05T04:52:55.304Z,1.46
2019-02-05T04:55:32.287Z,1.53
2019-02-05T04:58:06.510Z,1.49
2019-02-05T05:00:56.189Z,1.47
2019-02-05T05:03:45.994Z,1.46
2019-02-05T05:06:46.593Z,1.40
2019-02-05T05:09:36.017Z,1.46
2019-02-05T05:12:04.653Z,1.35
2019-02-05T05:14:33.145Z,1.42
2019-02-05T05:17:01.991Z,1.42
2019-02-05T05:19:30.489Z,1.41
2019-02-05T05:21:59.292Z,1.41
2019-02-05T05:24:27.777Z,1.47
2019-02-05T05:26:56.418Z,1.47
2019-02-05T05:29:25.151Z,1.50
2019-02-05T05:31:53.870Z,1.49
2019-02-05T05:34:22.533Z,1.45
2019-02-05T05:36:49.887Z,1.52
2019-02-05T05:39:19.011Z,1.51
2019-02-05T05:41:47.675Z,1.46
2019-02-05T05:44:16.180Z,1.51
2019-02-05T05:46:44.637Z,1.52
2019-02-05T05:49:13.133Z,1.52
2019-02-05T05:51:41.972Z,1.52
2019-02-05T05:54:10.462Z,1.56
2019-02-05T05:56:38.921Z,1.52
2019-02-05T05:59:07.623Z,1.57
2019-02-05T06:01:36.073Z,1.58
2019-02-05T06:04:05.408Z,1.57
2019-02-05T06:06:33.977Z,1.61
2019-02-05T06:09:04.644Z,1.57
2019-02-05T06:11:33.266Z,1.59
2019-02-05T06:14:01.744Z,1.62
2019-02-05T06:16:30.247Z,1.60
2019-02-05T06:18:58.737Z,1.63
2019-02-05T06:21:27.210Z,1.63
2019-02-05T06:23:55.936Z,1.65
2019-02-05T06:26:24.481Z,1.65
2019-02-05T06:28:52.994Z,1.61
2019-02-05T06:31:21.465Z,1.65
2019-02-05T06:33:49.946Z,1.65
2019-02-05T06:36:18.406Z,1.71
2019-02-05T06:38:46.889Z,1.69
2019-02-05T06:41:15.353Z,1.66
2019-02-05T06:43:43.836Z,1.68
2019-02-05T06:46:12.287Z,1.67
2019-02-05T06:48:40.774Z,1.71
2019-02-05T06:51:09.245Z,1.71
2019-02-05T06:53:37.723Z,1.68
2019-02-05T06:56:06.361Z,1.71
2019-02-05T06:58:45.734Z,1.72
2019-02-05T07:01:05.382Z,1.71
2019-02-05T07:03:33.873Z,1.73
2019-02-05T07:06:02.337Z,1.76
2019-02-05T07:08:30.803Z,1.77
2019-02-05T07:10:59.282Z,1.78
2019-02-05T07:13:27.748Z,1.76
2019-02-05T07:15:56.725Z,1.82
2019-02-05T07:18:25.188Z,1.76
2019-02-05T07:20:53.671Z,1.85
2019-02-05T07:23:22.138Z,1.87
2019-02-05T07:25:50.623Z,1.88
2019-02-05T07:28:19.086Z,1.91
2019-02-05T07:30:47.579Z,1.91
2019-02-05T07:33:16.406Z,1.90
2019-02-05T07:35:44.905Z,1.96
2019-02-05T07:38:13.368Z,1.95
2019-02-05T07:40:41.841Z,1.97
2019-02-05T07:43:10.296Z,2.01
2019-02-05T07:45:38.780Z,2.03
2019-02-05T07:48:07.312Z,2.06
2019-02-05T07:50:35.807Z,2.06
2019-02-05T07:53:05.175Z,2.04
2019-02-05T07:55:33.667Z,2.11
2019-02-05T07:58:02.137Z,2.14
2019-02-05T08:00:31.166Z,2.19
2019-02-05T08:02:59.702Z,2.22
2019-02-05T08:05:30.623Z,2.25
2019-02-05T08:07:59.326Z,2.30
2019-02-05T08:10:28.638Z,2.30
2019-02-05T08:12:57.091Z,2.28
2019-02-05T08:15:30.532Z,2.35
2019-02-05T08:17:58.986Z,2.38
2019-02-05T08:20:27.642Z,2.41
2019-02-05T08:22:56.274Z,2.38
2019-02-05T08:25:24.753Z,2.42
2019-02-05T08:27:53.581Z,2.45
2019-02-05T08:30:28.123Z,2.50
2019-02-05T08:32:56.587Z,2.45
2019-02-05T08:35:25.065Z,2.50
2019-02-05T08:37:53.554Z,2.56
2019-02-05T08:40:23.365Z,2.56
2019-02-05T08:42:51.897Z,2.61
2019-02-05T08:45:23.668Z,2.61
2019-02-05T08:47:52.140Z,2.64
2019-02-05T08:50:23.348Z,2.65
2019-02-05T08:52:51.918Z,2.69
2019-02-05T08:55:21.644Z,2.74
2019-02-05T08:57:58.379Z,2.76
2019-02-05T09:00:32.443Z,2.82
2019-02-05T09:03:01.251Z,2.79
2019-02-05T09:05:29.716Z,2.83
2019-02-05T09:07:58.283Z,2.91
2019-02-05T09:10:32.095Z,2.90
2019-02-05T09:13:00.858Z,2.90
2019-02-05T09:15:29.935Z,2.96
2019-02-05T09:17:58.992Z,2.98
2019-02-05T09:20:27.454Z,2.99
2019-02-05T09:22:56.384Z,3.02
2019-02-05T09:25:24.939Z,3.00
2019-02-05T09:27:53.469Z,3.03
2019-02-05T09:30:24.670Z,3.12
2019-02-05T09:32:55.988Z,3.10
2019-02-05T09:35:24.445Z,3.15
2019-02-05T09:37:52.926Z,3.20
2019-02-05T09:40:27.062Z,3.19
2019-02-05T09:42:55.714Z,3.24
2019-02-05T09:45:25.005Z,3.28
2019-02-05T09:47:53.813Z,3.30
2019-02-05T09:50:22.527Z,3.32
2019-02-05T09:52:51.259Z,3.33
2019-02-05T09:55:21.266Z,3.57
2019-02-05T09:57:49.894Z,3.44
2019-02-05T10:00:30.201Z,3.44
2019-02-05T10:02:59.024Z,3.42
2019-02-05T10:05:32.923Z,3.44
2019-02-05T10:08:01.412Z,3.47
2019-02-05T10:10:30.028Z,3.45
2019-02-05T10:12:58.705Z,3.50
2019-02-05T10:15:30.031Z,3.49
2019-02-05T10:17:58.897Z,3.50
2019-02-05T10:20:27.703Z,3.46
2019-02-05T10:22:57.836Z,3.50
2019-02-05T10:25:26.490Z,3.68
2019-02-05T10:27:55.044Z,3.60
2019-02-05T10:30:29.337Z,3.64
2019-02-05T10:32:58.010Z,3.63
2019-02-05T10:35:26.559Z,3.59
2019-02-05T10:37:55.121Z,3.60
2019-02-05T10:40:25.093Z,3.61
2019-02-05T10:42:53.850Z,3.62
2019-02-05T10:45:26.869Z,3.69
2019-02-05T10:47:56.976Z,3.71
2019-02-05T10:50:25.886Z,3.71
2019-02-05T10:52:54.430Z,3.69
2019-02-05T10:55:23.629Z,3.70
2019-02-05T10:57:54.025Z,3.70
2019-02-05T11:00:26.126Z,3.79
2019-02-05T11:02:55.729Z,3.79
2019-02-05T11:05:26.616Z,3.81
2019-02-05T11:07:55.208Z,3.85
2019-02-05T11:10:23.668Z,3.85
2019-02-05T11:12:52.321Z,3.87
2019-02-05T11:15:25.865Z,3.86
2019-02-05T11:17:54.350Z,3.84
2019-02-05T11:20:24.864Z,3.87
2019-02-05T11:22:53.515Z,3.90
2019-02-05T11:25:22.324Z,3.92
2019-02-05T11:27:50.959Z,3.96
2019-02-05T11:30:22.134Z,4.01
2019-02-05T11:32:52.853Z,4.03
2019-02-05T11:35:20.821Z,4.02
2019-02-05T11:37:50.172Z,4.07
2019-02-05T11:40:22.020Z,4.09
2019-02-05T11:42:50.519Z,4.07
2019-02-05T11:45:20.091Z,4.09
2019-02-05T11:47:49.627Z,4.11
2019-02-05T11:50:19.465Z,4.20
2019-02-05T11:52:48.139Z,4.17
2019-02-05T11:55:22.250Z,4.15
2019-02-05T11:57:50.795Z,4.16
2019-02-05T12:00:40.802Z,4.20
2019-02-05T12:03:10.531Z,4.17
2019-02-05T12:05:39.355Z,4.21
2019-02-05T12:08:08.271Z,4.12
2019-02-05T12:10:36.743Z,4.25
2019-02-05T12:13:05.408Z,4.24
2019-02-05T12:15:34.060Z,4.29
2019-02-05T12:18:03.432Z,4.27
2019-02-05T12:20:31.903Z,4.21
2019-02-05T12:23:00.913Z,4.32
2019-02-05T12:25:29.389Z,4.32
2019-02-05T12:27:57.873Z,4.35
2019-02-05T12:30:43.906Z,4.36
2019-02-05T12:33:02.348Z,4.39
2019-02-05T12:35:30.889Z,4.39
2019-02-05T12:37:59.852Z,4.41
2019-02-05T12:40:28.469Z,4.38
2019-02-05T12:42:57.093Z,4.45
2019-02-05T12:45:36.306Z,4.42
2019-02-05T12:48:05.622Z,4.44
2019-02-05T12:50:42.095Z,4.51
2019-02-05T12:53:10.660Z,4.53
2019-02-05T12:55:39.253Z,4.52
2019-02-05T12:58:08.108Z,4.54
2019-02-05T13:00:39.634Z,4.58
2019-02-05T13:03:09.065Z,4.58
2019-02-05T13:05:38.173Z,4.56
2019-02-05T13:08:07.201Z,4.62
2019-02-05T13:10:38.340Z,4.61
2019-02-05T13:13:07.868Z,4.63
2019-02-05T13:15:36.572Z,4.68
2019-02-05T13:18:06.769Z,4.59
2019-02-05T13:20:35.478Z,4.64
2019-02-05T13:23:05.292Z,4.65
2019-02-05T13:25:34.523Z,4.74
2019-02-05T13:28:03.257Z,4.64
2019-02-05T13:30:33.293Z,4.68
2019-02-05T13:33:02.217Z,4.67
2019-02-05T13:35:31.519Z,4.62
2019-02-05T13:38:00.759Z,4.52
2019-02-05T13:40:30.290Z,4.51
2019-02-05T13:43:00.289Z,4.58
2019-02-05T13:45:31.932Z,4.65
2019-02-05T13:48:00.519Z,4.61
2019-02-05T13:50:33.513Z,4.66
2019-02-05T13:53:01.810Z,4.64
2019-02-05T13:55:32.894Z,4.58
2019-02-05T13:58:01.704Z,4.57
2019-02-05T14:00:32.941Z,4.54
2019-02-05T14:03:01.429Z,4.63
2019-02-05T14:05:29.926Z,4.57
2019-02-05T14:07:58.562Z,4.55
2019-02-05T14:10:32.369Z,4.59
2019-02-05T14:13:00.894Z,4.59
2019-02-05T14:15:34.291Z,4.55
2019-02-05T14:18:03.218Z,4.56
2019-02-05T14:20:31.700Z,4.53
2019-02-05T14:23:00.348Z,4.53
2019-02-05T14:25:28.838Z,4.61
2019-02-05T14:27:57.300Z,4.62
2019-02-05T14:30:34.351Z,4.63
2019-02-05T14:33:03.533Z,4.62
2019-02-05T14:35:32.027Z,4.60
2019-02-05T14:38:00.927Z,4.59
2019-02-05T14:40:29.489Z,4.63
2019-02-05T14:42:58.082Z,4.57
2019-02-05T14:45:26.638Z,4.61
2019-02-05T14:47:55.095Z,4.58
2019-02-05T14:50:28.903Z,4.62
2019-02-05T14:52:57.610Z,4.60
2019-02-05T14:55:26.173Z,4.60
2019-02-05T14:57:54.810Z,4.57
2019-02-05T15:00:31.777Z,4.56
2019-02-05T15:03:02.186Z,4.58
2019-02-05T15:05:30.889Z,4.54
2019-02-05T15:07:59.343Z,4.50
2019-02-05T15:10:27.923Z,4.50
2019-02-05T15:12:56.560Z,4.55
2019-02-05T15:15:29.035Z,4.57
2019-02-05T15:17:58.250Z,4.56
2019-02-05T15:20:32.100Z,4.50
2019-02-05T15:23:00.923Z,4.53
2019-02-05T15:25:29.680Z,4.52
2019-02-05T15:27:58.923Z,4.51
2019-02-05T15:30:31.087Z,4.52
2019-02-05T15:33:06.933Z,4.49
2019-02-05T15:35:35.629Z,4.51
2019-02-05T15:38:04.358Z,4.50
2019-02-05T15:40:33.020Z,4.43
2019-02-05T15:43:01.884Z,4.44
2019-02-05T15:45:30.376Z,4.40
2019-02-05T15:47:58.920Z,4.44
2019-02-05T15:50:27.419Z,4.41
2019-02-05T15:52:55.873Z,4.47
2019-02-05T15:55:24.538Z,4.37
2019-02-05T15:57:53.004Z,4.43
2019-02-05T16:00:25.769Z,4.43
2019-02-05T16:02:54.305Z,4.35
2019-02-05T16:05:22.797Z,4.38
2019-02-05T16:07:51.264Z,4.33
2019-02-05T16:10:24.213Z,4.39
2019-02-05T16:12:52.679Z,4.35
2019-02-05T16:15:21.165Z,4.38
2019-02-05T16:17:49.695Z,4.35
2019-02-05T16:20:20.298Z,4.41
2019-02-05T16:22:50.195Z,4.35
2019-02-05T16:25:19.133Z,4.31
2019-02-05T16:27:47.607Z,4.30
2019-02-05T16:30:28.040Z,4.31
2019-02-05T16:32:56.504Z,4.33
2019-02-05T16:35:25.127Z,4.30
2019-02-05T16:37:54.742Z,4.32
2019-02-05T16:40:35.022Z,4.33
2019-02-05T16:43:03.704Z,4.29
2019-02-05T16:45:32.735Z,4.31
2019-02-05T16:48:01.432Z,4.30
2019-02-05T16:50:42.292Z,4.27
2019-02-05T16:53:11.232Z,4.28
2019-02-05T16:55:39.725Z,4.28
2019-02-05T16:58:08.195Z,4.30
2019-02-05T17:00:38.023Z,4.33
2019-02-05T17:03:07.322Z,4.32
2019-02-05T17:05:38.349Z,4.34
2019-02-05T17:08:07.291Z,4.29
2019-02-05T17:10:35.773Z,4.24
2019-02-05T17:13:05.292Z,4.19
2019-02-05T17:15:33.772Z,4.25
2019-02-05T17:18:04.146Z,4.26
2019-02-05T17:20:33.860Z,4.19
2019-02-05T17:23:02.540Z,4.15
2019-02-05T17:25:31.026Z,4.21
2019-02-05T17:28:01.657Z,4.27
2019-02-05T17:30:35.303Z,4.23
2019-02-05T17:33:04.375Z,4.20
2019-02-05T17:35:35.382Z,4.24
2019-02-05T17:38:03.371Z,4.21
2019-02-05T17:40:31.835Z,4.19
2019-02-05T17:43:00.327Z,4.23
2019-02-05T17:45:31.520Z,4.24
2019-02-05T17:48:02.282Z,4.19
2019-02-05T17:50:30.749Z,4.22
2019-02-05T17:52:59.522Z,4.26
2019-02-05T17:55:27.967Z,4.24
2019-02-05T17:57:56.509Z,4.23
2019-02-05T18:00:29.470Z,4.25
2019-02-05T18:02:58.091Z,4.17
2019-02-05T18:05:26.637Z,4.25
2019-02-05T18:07:55.683Z,4.21
2019-02-05T18:10:26.929Z,4.18
2019-02-05T18:12:55.425Z,4.15
2019-02-05T18:15:26.808Z,4.18
2019-02-05T18:17:55.525Z,4.19
2019-02-05T18:20:24.003Z,4.21
2019-02-05T18:22:52.868Z,4.21
2019-02-05T18:25:21.782Z,4.15
2019-02-05T18:27:57.848Z,4.13
2019-02-05T18:30:28.656Z,4.14
2019-02-05T18:33:04.983Z,4.10
2019-02-05T18:35:28.008Z,4.09
2019-02-05T18:37:56.965Z,4.10
2019-02-05T18:40:27.164Z,4.13
2019-02-05T18:42:55.742Z,4.16
2019-02-05T18:45:24.279Z,4.07
2019-02-05T18:47:52.841Z,4.11
2019-02-05T18:50:23.842Z,4.10
2019-02-05T18:52:52.344Z,4.16
2019-02-05T18:55:22.136Z,4.12
2019-02-05T18:57:50.636Z,4.11
2019-02-05T19:00:27.976Z,4.08
2019-02-05T19:02:56.527Z,4.10
2019-02-05T19:05:25.541Z,4.12
2019-02-05T19:07:54.277Z,4.07
2019-02-05T19:10:25.558Z,4.07
2019-02-05T19:12:54.217Z,4.10
2019-02-05T19:15:26.344Z,4.10
2019-02-05T19:17:54.871Z,4.08
2019-02-05T19:20:28.461Z,4.09
2019-02-05T19:22:56.938Z,4.14
2019-02-05T19:25:33.497Z,4.12
2019-02-05T19:28:01.987Z,4.16
2019-02-05T19:30:32.098Z,4.09
2019-02-05T19:33:01.040Z,4.08
2019-02-05T19:35:29.498Z,4.07
2019-02-05T19:37:57.999Z,4.08
2019-02-05T19:40:26.519Z,4.09
2019-02-05T19:42:55.016Z,4.09
2019-02-05T19:45:33.691Z,4.06
2019-02-05T19:48:03.823Z,4.13
2019-02-05T19:50:32.361Z,4.11
2019-02-05T19:53:00.845Z,4.09
2019-02-05T19:55:29.315Z,4.12
2019-02-05T19:57:58.210Z,4.09
2019-02-05T20:00:26.679Z,4.08
2019-02-05T20:02:55.646Z,4.09
2019-02-05T20:05:24.226Z,4.09
2019-02-05T20:07:54.425Z,4.08
2019-02-05T20:10:23.060Z,4.04
2019-02-05T20:12:51.560Z,4.12
2019-02-05T20:15:20.069Z,4.05
2019-02-05T20:17:48.592Z,4.04
2019-02-05T20:20:19.270Z,4.12
2019-02-05T20:22:48.268Z,4.13
2019-02-05T20:25:17.958Z,4.11
2019-02-05T20:27:46.502Z,4.10
2019-02-05T20:30:26.098Z,4.06
2019-02-05T20:32:54.606Z,4.03
2019-02-05T20:35:23.084Z,4.06
2019-02-05T20:37:52.118Z,4.11
2019-02-05T20:40:25.408Z,3.98
2019-02-05T20:42:54.188Z,4.05
2019-02-05T20:45:22.775Z,4.12
2019-02-05T20:47:51.257Z,4.11
2019-02-05T20:50:21.221Z,4.07
2019-02-05T20:52:49.882Z,4.02
2019-02-05T20:55:22.688Z,4.03
2019-02-05T20:57:52.121Z,4.07
2019-02-05T21:00:23.229Z,4.00
2019-02-05T21:02:51.874Z,4.09
2019-02-05T21:05:21.584Z,4.11
2019-02-05T21:07:50.397Z,4.11
2019-02-05T21:10:22.083Z,4.14
2019-02-05T21:12:50.721Z,4.21
2019-02-05T21:15:20.092Z,4.19
2019-02-05T21:17:48.652Z,4.14
2019-02-05T21:20:29.182Z,4.17
2019-02-05T21:22:53.323Z,4.18
2019-02-05T21:25:23.747Z,4.24
2019-02-05T21:27:52.226Z,4.25
2019-02-05T21:30:22.926Z,4.26
2019-02-05T21:32:52.022Z,4.30
2019-02-05T21:35:20.504Z,4.25
2019-02-05T21:37:48.972Z,4.19
2019-02-05T21:40:25.664Z,4.14
2019-02-05T21:42:54.307Z,4.15
2019-02-05T21:45:27.951Z,4.11
2019-02-05T21:47:56.429Z,4.11
2019-02-05T21:50:25.064Z,4.06
2019-02-05T21:52:53.598Z,4.15
2019-02-05T21:55:24.476Z,4.15
2019-02-05T21:57:53.009Z,4.13
2019-02-05T22:00:32.286Z,4.10
2019-02-05T22:03:00.845Z,4.08
2019-02-05T22:05:31.254Z,4.08
2019-02-05T22:08:00.384Z,4.07
2019-02-05T22:10:28.846Z,4.02
2019-02-05T22:12:57.481Z,4.05
2019-02-05T22:15:26.349Z,4.01
2019-02-05T22:17:55.204Z,4.09
2019-02-05T22:20:29.991Z,4.12
2019-02-05T22:22:58.523Z,4.08
2019-02-05T22:25:32.281Z,4.13
2019-02-05T22:28:01.735Z,4.05
2019-02-05T22:30:32.806Z,4.08
2019-02-05T22:33:01.558Z,4.03
2019-02-05T22:35:30.282Z,4.03
2019-02-05T22:37:58.831Z,4.05
2019-02-05T22:40:28.165Z,4.03
2019-02-05T22:42:57.076Z,3.98
2019-02-05T22:45:30.249Z,3.99
2019-02-05T22:47:58.720Z,3.98
2019-02-05T22:50:29.693Z,3.97
2019-02-05T22:52:58.211Z,3.99
2019-02-05T22:55:26.705Z,3.97
2019-02-05T22:57:55.320Z,4.00
2019-02-05T23:00:31.328Z,4.01
2019-02-05T23:02:59.796Z,3.94
2019-02-05T23:06:01.878Z,3.91
2019-02-05T23:08:30.585Z,3.99
2019-02-05T23:11:07.413Z,3.96
2019-02-05T23:13:36.225Z,3.97
2019-02-05T23:16:05.577Z,4.04
2019-02-05T23:18:34.134Z,4.02
2019-02-05T23:21:02.792Z,4.04
2019-02-05T23:23:31.259Z,4.02
2019-02-05T23:25:59.859Z,4.00
2019-02-05T23:28:28.326Z,4.01
2019-02-05T23:30:56.827Z,4.07
2019-02-05T23:33:25.298Z,4.00
2019-02-05T23:35:53.779Z,3.98
2019-02-05T23:38:29.658Z,3.95
2019-02-05T23:40:52.534Z,3.95
2019-02-05T23:43:20.997Z,3.97
2019-02-05T23:46:00.936Z,3.92
2019-02-05T23:48:20.337Z,3.92
2019-02-05T23:50:48.819Z,3.97
2019-02-05T23:53:17.768Z,4.00
2019-02-05T23:55:48.207Z,4.00
2019-02-05T23:58:17.270Z,4.01
